createdAt,value
2022-08-08T00:01:06.719Z,6.13
2022-08-08T00:04:16.243Z,7.05
2022-08-08T00:06:52.797Z,6.57
2022-08-08T00:09:39.721Z,7.28
2022-08-08T00:12:13.440Z,6.85
2022-08-08T00:14:58.950Z,6.68
2022-08-08T00:18:03.844Z,7.20
2022-08-08T00:20:52.560Z,7.28
2022-08-08T00:24:04.889Z,6.95
2022-08-08T00:26:38.819Z,7.43
2022-08-08T00:29:17.504Z,7.22
2022-08-08T00:32:28.584Z,7.07
2022-08-08T00:35:18.606Z,7.68
2022-08-08T00:38:01.280Z,7.60
2022-08-08T00:41:07.570Z,7.93
2022-08-08T00:43:40.391Z,7.68
2022-08-08T00:46:16.246Z,8.00
2022-08-08T00:48:59.280Z,7.65
2022-08-08T00:51:38.877Z,7.78
2022-08-08T00:54:29.160Z,8.13
2022-08-08T00:57:29.458Z,7.50
2022-08-08T01:00:14.406Z,7.93
2022-08-08T01:04:02.425Z,7.63
2022-08-08T01:07:05.727Z,8.02
2022-08-08T01:09:54.438Z,8.85
2022-08-08T01:12:36.251Z,7.68
2022-08-08T01:18:02.199Z,7.90
2022-08-08T01:20:44.259Z,7.63
2022-08-08T01:24:03.819Z,7.93
2022-08-08T01:26:49.189Z,7.25
2022-08-08T01:29:27.970Z,7.15
2022-08-08T01:32:15.889Z,7.20
2022-08-08T01:34:53.586Z,6.70
2022-08-08T01:37:56.263Z,6.47
2022-08-08T01:40:34.607Z,5.88
2022-08-08T01:43:11.950Z,6.03
2022-08-08T01:45:50.430Z,6.18
2022-08-08T01:48:35.889Z,6.28
2022-08-08T01:52:04.796Z,5.82
2022-08-08T01:55:45.198Z,5.78
2022-08-08T01:58:12.679Z,5.43
2022-08-08T02:00:48.452Z,5.50
2022-08-08T02:03:57.430Z,5.93
2022-08-08T02:06:59.728Z,6.20
2022-08-08T02:10:03.559Z,5.25
2022-08-08T02:12:51.336Z,5.45
2022-08-08T02:15:43.639Z,5.70
2022-08-08T02:18:21.868Z,5.68
2022-08-08T02:21:21.114Z,5.85
2022-08-08T02:23:56.071Z,5.82
2022-08-08T02:26:34.423Z,5.30
2022-08-08T02:29:21.114Z,6.30
2022-08-08T02:32:26.395Z,5.45
2022-08-08T02:35:08.317Z,5.88
2022-08-08T02:38:12.636Z,5.32
2022-08-08T02:42:03.824Z,6.63
2022-08-08T02:44:56.723Z,6.68
2022-08-08T02:48:03.462Z,6.00
2022-08-08T02:50:55.523Z,5.68
2022-08-08T02:53:26.328Z,5.78
2022-08-08T02:56:19.996Z,6.80
2022-08-08T02:59:57.530Z,5.97
2022-08-08T03:02:50.489Z,5.43
2022-08-08T03:05:45.355Z,5.15
2022-08-08T03:08:16.869Z,5.03
2022-08-08T03:11:13.827Z,5.10
2022-08-08T03:15:58.108Z,4.95
2022-08-08T03:17:05.218Z,4.50
2022-08-08T03:20:11.576Z,5.25
2022-08-08T03:22:56.333Z,4.40
2022-08-08T03:25:35.948Z,4.80
2022-08-08T03:28:07.658Z,4.35
2022-08-08T03:30:35.358Z,4.38
2022-08-08T03:33:56.260Z,4.15
2022-08-08T03:36:09.315Z,4.43
2022-08-08T03:38:58.299Z,4.05
2022-08-08T03:42:28.706Z,4.45
2022-08-08T03:44:20.385Z,4.13
2022-08-08T03:46:53.985Z,4.55
2022-08-08T03:49:58.574Z,4.20
2022-08-08T03:52:13.138Z,4.28
2022-08-08T03:55:02.119Z,4.55
2022-08-08T03:58:34.782Z,4.07
2022-08-08T04:00:20.498Z,4.22
2022-08-08T04:03:06.313Z,4.30
2022-08-08T04:05:39.856Z,4.25
2022-08-08T04:08:33.498Z,4.80
2022-08-08T04:11:03.004Z,5.07
2022-08-08T04:14:03.030Z,5.20
2022-08-08T04:16:40.319Z,4.75
2022-08-08T04:19:23.882Z,5.13
2022-08-08T04:21:54.316Z,4.68
2022-08-08T04:24:30.428Z,4.63
2022-08-08T04:26:59.411Z,5.05
2022-08-08T04:29:27.383Z,5.00
2022-08-08T04:32:00.665Z,5.22
2022-08-08T04:34:32.068Z,5.15
2022-08-08T04:37:10.333Z,5.43
2022-08-08T04:40:03.138Z,5.07
2022-08-08T04:42:27.271Z,4.97
2022-08-08T04:44:57.350Z,5.70
2022-08-08T04:47:24.667Z,5.47
2022-08-08T04:50:01.392Z,5.65
2022-08-08T04:52:35.086Z,5.47
2022-08-08T04:55:04.277Z,4.82
2022-08-08T04:57:34.337Z,5.38
2022-08-08T05:00:02.976Z,5.07
2022-08-08T05:02:31.129Z,5.07
2022-08-08T05:04:59.988Z,6.93
2022-08-08T05:07:38.183Z,5.40
2022-08-08T05:10:12.876Z,5.45
2022-08-08T05:12:56.517Z,5.25
2022-08-08T05:16:47.872Z,5.05
2022-08-08T05:18:17.036Z,5.40
2022-08-08T05:20:48.664Z,5.90
2022-08-08T05:23:19.826Z,4.75
2022-08-08T05:25:49.570Z,4.85
2022-08-08T05:28:48.312Z,5.13
2022-08-08T05:31:19.204Z,4.55
2022-08-08T05:33:51.647Z,4.43
2022-08-08T05:36:25.271Z,4.80
2022-08-08T05:38:53.356Z,4.55
2022-08-08T05:41:23.302Z,4.25
2022-08-08T05:44:03.535Z,4.50
2022-08-08T05:46:33.094Z,4.82
2022-08-08T05:49:00.462Z,4.95
2022-08-08T05:51:27.963Z,4.80
2022-08-08T05:54:26.840Z,5.07
2022-08-08T05:56:56.791Z,4.55
2022-08-08T06:00:00.467Z,4.32
2022-08-08T06:02:44.125Z,5.40
2022-08-08T06:05:35.004Z,4.50
2022-08-08T06:08:10.453Z,4.88
2022-08-08T06:10:52.149Z,4.70
2022-08-08T06:13:22.574Z,5.15
2022-08-08T06:15:53.796Z,5.03
2022-08-08T06:18:26.063Z,4.20
2022-08-08T06:20:56.586Z,4.70
2022-08-08T06:26:38.267Z,4.78
2022-08-08T06:29:25.952Z,5.13
2022-08-08T06:32:10.806Z,5.15
2022-08-08T06:34:52.606Z,5.72
2022-08-08T06:37:36.784Z,5.23
2022-08-08T06:40:07.204Z,5.60
2022-08-08T06:42:38.407Z,6.47
2022-08-08T06:45:06.560Z,6.57
2022-08-08T06:47:53.965Z,7.25
2022-08-08T06:50:31.837Z,7.15
2022-08-08T06:53:09.842Z,6.53
2022-08-08T06:55:42.136Z,6.95
2022-08-08T06:58:10.562Z,6.63
2022-08-08T07:00:40.720Z,7.22
2022-08-08T07:03:52.780Z,6.68
2022-08-08T07:06:02.438Z,6.85
2022-08-08T07:08:38.886Z,7.53
2022-08-08T07:11:07.759Z,7.93
2022-08-08T07:14:00.749Z,6.80
2022-08-08T07:16:37.729Z,8.10
2022-08-08T07:22:05.198Z,7.63
2022-08-08T07:24:53.046Z,7.15
2022-08-08T07:27:35.292Z,6.70
2022-08-08T07:32:47.608Z,5.45
2022-08-08T07:35:15.955Z,3.70
2022-08-08T07:37:56.208Z,4.00
2022-08-08T07:40:33.822Z,3.28
2022-08-08T07:43:02.642Z,3.55
2022-08-08T07:45:34.632Z,3.37
2022-08-08T07:48:18.950Z,3.63
2022-08-08T07:50:46.926Z,3.58
2022-08-08T07:53:51.935Z,4.45
2022-08-08T07:56:07.960Z,3.40
2022-08-08T07:58:39.036Z,4.00
2022-08-08T08:01:17.643Z,4.30
2022-08-08T08:04:16.449Z,4.60
2022-08-08T08:06:44.405Z,4.05
2022-08-08T08:09:12.940Z,7.05
2022-08-08T08:11:52.513Z,5.10
2022-08-08T08:14:26.429Z,4.40
2022-08-08T08:16:53.834Z,4.90
2022-08-08T08:19:22.828Z,4.18
2022-08-08T08:21:58.265Z,3.83
2022-08-08T08:24:32.222Z,3.85
2022-08-08T08:27:02.998Z,3.80
2022-08-08T08:29:31.363Z,4.00
2022-08-08T08:31:59.221Z,3.60
2022-08-08T08:34:32.157Z,4.70
2022-08-08T08:37:08.152Z,4.45
2022-08-08T08:40:00.520Z,4.25
2022-08-08T08:42:31.571Z,4.47
2022-08-08T08:45:21.136Z,4.53
2022-08-08T08:47:53.070Z,4.25
2022-08-08T08:50:33.176Z,4.30
2022-08-08T08:53:27.415Z,4.43
2022-08-08T08:55:56.166Z,4.05
2022-08-08T08:58:41.397Z,3.70
2022-08-08T09:01:14.844Z,4.60
2022-08-08T09:03:50.928Z,4.00
2022-08-08T09:06:28.222Z,4.30
2022-08-08T09:09:19.179Z,4.35
2022-08-08T09:12:07.861Z,3.50
2022-08-08T09:14:35.755Z,4.30
2022-08-08T09:17:15.856Z,4.53
2022-08-08T09:21:57.824Z,5.50
2022-08-08T09:22:39.469Z,5.30
2022-08-08T09:25:07.834Z,5.35
2022-08-08T09:27:55.940Z,6.10
2022-08-08T09:30:26.044Z,4.80
2022-08-08T09:33:13.086Z,5.25
2022-08-08T09:35:50.083Z,4.93
2022-08-08T09:38:31.992Z,6.43
2022-08-08T09:41:05.162Z,5.57
2022-08-08T09:43:40.718Z,5.55
2022-08-08T09:46:25.862Z,12.23
2022-08-08T09:49:18.674Z,4.05
2022-08-08T09:52:07.076Z,4.20
2022-08-08T09:54:45.906Z,4.22
2022-08-08T09:57:19.138Z,4.40
2022-08-08T10:00:02.173Z,4.10
2022-08-08T10:02:42.257Z,3.72
2022-08-08T10:05:25.339Z,2.60
2022-08-08T10:07:59.987Z,2.38
2022-08-08T10:10:38.425Z,14.68
2022-08-08T10:13:25.967Z,2.13
2022-08-08T10:16:02.034Z,1.70
2022-08-08T10:18:35.702Z,2.38
2022-08-08T10:21:24.936Z,1.90
2022-08-08T10:23:57.828Z,1.77
2022-08-08T10:26:52.328Z,1.33
2022-08-08T10:29:59.303Z,1.73
2022-08-08T10:32:48.617Z,1.80
2022-08-08T10:36:21.111Z,1.48
2022-08-08T10:38:09.272Z,1.88
2022-08-08T10:40:41.105Z,1.75
2022-08-08T10:43:09.821Z,1.10
2022-08-08T10:45:57.176Z,2.33
2022-08-08T10:48:56.049Z,1.33
2022-08-08T10:51:24.149Z,1.48
2022-08-08T10:53:56.421Z,1.53
2022-08-08T10:56:27.765Z,1.30
2022-08-08T10:59:00.671Z,1.45
2022-08-08T11:01:30.198Z,1.90
2022-08-08T11:04:02.567Z,1.27
2022-08-08T11:06:34.495Z,1.20
2022-08-08T11:09:09.621Z,1.33
2022-08-08T11:12:06.382Z,1.08
2022-08-08T11:14:31.888Z,1.30
2022-08-08T11:16:59.122Z,1.30
2022-08-08T11:19:26.528Z,1.40
2022-08-08T11:21:56.087Z,1.40
2022-08-08T11:24:25.754Z,1.60
2022-08-08T11:26:56.294Z,0.98
2022-08-08T11:29:29.493Z,1.00
2022-08-08T11:32:13.518Z,1.52
2022-08-08T11:35:23.428Z,1.35
2022-08-08T11:38:35.148Z,1.23
2022-08-08T11:40:22.489Z,1.27
2022-08-08T11:42:53.318Z,1.65
2022-08-08T11:45:21.911Z,1.27
2022-08-08T11:48:02.809Z,0.98
2022-08-08T11:50:32.399Z,1.23
2022-08-08T11:53:05.734Z,1.38
2022-08-08T11:55:36.635Z,1.30
2022-08-08T11:58:14.727Z,1.17
2022-08-08T12:00:53.537Z,1.00
2022-08-08T12:03:30.612Z,1.13
2022-08-08T12:05:58.330Z,0.90
2022-08-08T12:08:37.090Z,1.80
2022-08-08T12:11:06.451Z,1.30
2022-08-08T12:14:02.747Z,0.90
2022-08-08T12:16:30.914Z,0.70
2022-08-08T12:24:27.979Z,1.10
2022-08-08T12:26:58.401Z,1.63
2022-08-08T12:29:41.049Z,1.25
2022-08-08T12:32:17.108Z,1.00
2022-08-08T12:35:13.707Z,1.10
2022-08-08T12:37:47.966Z,1.00
2022-08-08T12:40:56.516Z,0.70
2022-08-08T12:43:47.633Z,1.52
2022-08-08T12:46:26.304Z,1.17
2022-08-08T12:51:49.800Z,1.00
2022-08-08T12:54:25.846Z,0.77
2022-08-08T12:56:53.461Z,0.65
2022-08-08T12:59:36.266Z,1.13
2022-08-08T13:02:04.393Z,0.70
2022-08-08T13:04:34.974Z,1.20
2022-08-08T13:07:05.326Z,1.30
2022-08-08T13:10:00.759Z,0.95
2022-08-08T13:12:44.382Z,0.73
2022-08-08T13:15:19.569Z,0.80
2022-08-08T13:18:09.227Z,1.00
2022-08-08T13:20:34.388Z,0.93
2022-08-08T13:23:37.087Z,0.90
2022-08-08T13:25:50.081Z,1.15
2022-08-08T13:28:32.495Z,0.88
2022-08-08T13:31:04.516Z,1.00
2022-08-08T13:33:41.915Z,1.00
2022-08-08T13:36:10.901Z,0.90
2022-08-08T13:38:39.710Z,0.77
2022-08-08T13:41:07.499Z,0.90
2022-08-08T13:43:46.429Z,1.00
2022-08-08T13:46:27.469Z,0.98
2022-08-08T13:50:33.713Z,0.80
2022-08-08T13:51:57.602Z,1.08
2022-08-08T13:54:29.531Z,0.80
2022-08-08T13:57:00.980Z,0.80
2022-08-08T14:02:07.840Z,1.00
2022-08-08T14:04:52.851Z,0.90
2022-08-08T14:07:22.550Z,0.75
2022-08-08T14:10:05.126Z,1.17
2022-08-08T14:12:43.778Z,0.90
2022-08-08T14:15:46.485Z,1.00
2022-08-08T14:18:35.059Z,6.40
2022-08-08T14:21:20.424Z,2.00
2022-08-08T14:24:04.366Z,1.23
2022-08-08T14:26:43.154Z,1.23
2022-08-08T14:29:28.417Z,1.33
2022-08-08T14:32:09.213Z,0.68
2022-08-08T14:34:38.436Z,1.20
2022-08-08T14:37:08.276Z,0.60
2022-08-08T14:40:05.680Z,0.98
2022-08-08T14:42:54.599Z,2.15
2022-08-08T14:45:33.146Z,1.60
2022-08-08T14:48:16.221Z,1.42
2022-08-08T14:50:47.103Z,17.00
2022-08-08T14:53:15.360Z,1.60
2022-08-08T14:55:43.345Z,4.07
2022-08-08T14:58:12.173Z,3.67
2022-08-08T15:00:44.468Z,1.98
2022-08-08T15:03:16.047Z,1.13
2022-08-08T15:05:54.246Z,1.00
2022-08-08T15:08:35.541Z,5.88
2022-08-08T15:11:07.478Z,1.40
2022-08-08T15:14:01.507Z,1.77
2022-08-08T15:16:29.104Z,2.53
2022-08-08T15:18:56.442Z,1.23
2022-08-08T15:21:30.031Z,1.30
2022-08-08T15:23:58.539Z,1.38
2022-08-08T15:26:28.964Z,1.75
2022-08-08T15:28:57.223Z,1.17
2022-08-08T15:31:55.778Z,1.10
2022-08-08T15:34:29.759Z,1.08
2022-08-08T15:36:59.709Z,1.10
2022-08-08T15:39:38.280Z,1.45
2022-08-08T15:42:17.640Z,1.40
2022-08-08T15:47:29.045Z,1.50
2022-08-08T15:49:59.821Z,2.17
2022-08-08T15:52:27.097Z,1.50
2022-08-08T15:54:54.407Z,1.60
2022-08-08T15:57:23.064Z,1.42
2022-08-08T16:00:18.071Z,1.75
2022-08-08T16:02:44.109Z,1.50
2022-08-08T16:05:19.734Z,1.65
2022-08-08T16:07:52.858Z,1.50
2022-08-08T16:13:14.683Z,1.80
2022-08-08T16:13:28.553Z,1.40
2022-08-08T16:16:13.173Z,1.58
2022-08-08T16:18:56.958Z,1.80
2022-08-08T16:23:58.540Z,1.60
2022-08-08T16:26:34.633Z,1.65
2022-08-08T16:29:10.674Z,1.95
2022-08-08T16:31:49.662Z,2.13
2022-08-08T16:34:20.700Z,2.17
2022-08-08T16:36:50.460Z,2.10
2022-08-08T16:40:01.073Z,2.58
2022-08-08T16:42:06.113Z,2.67
2022-08-08T16:44:34.493Z,3.00
2022-08-08T16:47:40.382Z,2.17
2022-08-08T16:50:15.173Z,2.20
2022-08-08T16:55:07.217Z,2.65
2022-08-08T16:55:52.925Z,2.80
2022-08-08T16:58:26.362Z,2.45
2022-08-08T17:00:55.093Z,3.00
2022-08-08T17:03:25.106Z,2.30
2022-08-08T17:06:23.518Z,2.60
2022-08-08T17:08:57.600Z,2.30
2022-08-08T17:11:28.445Z,2.72
2022-08-08T17:14:17.751Z,2.60
2022-08-08T17:16:51.877Z,2.40
2022-08-08T17:19:27.404Z,2.90
2022-08-08T17:21:56.616Z,2.47
2022-08-08T17:24:27.683Z,3.08
2022-08-08T17:26:58.664Z,3.00
2022-08-08T17:29:56.873Z,3.15
2022-08-08T17:32:28.908Z,3.45
2022-08-08T17:35:54.057Z,3.70
2022-08-08T17:37:51.917Z,3.47
2022-08-08T17:40:21.172Z,3.17
2022-08-08T17:42:50.667Z,3.03
2022-08-08T17:45:23.486Z,3.50
2022-08-08T17:47:52.187Z,3.40
2022-08-08T17:50:21.939Z,3.88
2022-08-08T17:52:50.486Z,3.65
2022-08-08T17:56:03.927Z,3.75
2022-08-08T17:58:05.167Z,4.20
2022-08-08T18:00:32.486Z,3.60
2022-08-08T18:03:08.493Z,4.13
2022-08-08T18:05:48.315Z,4.00
2022-08-08T18:08:24.434Z,4.10
2022-08-08T18:11:08.349Z,4.28
2022-08-08T18:13:42.034Z,4.45
2022-08-08T18:16:11.076Z,4.68
2022-08-08T18:18:42.893Z,4.28
2022-08-08T18:21:34.429Z,5.07
2022-08-08T18:24:02.646Z,4.03
2022-08-08T18:26:30.088Z,4.60
2022-08-08T18:28:57.819Z,4.53
2022-08-08T18:31:27.739Z,4.07
2022-08-08T18:34:11.924Z,4.32
2022-08-08T18:36:44.609Z,4.60
2022-08-08T18:39:16.325Z,4.30
2022-08-08T18:42:01.129Z,4.45
2022-08-08T18:44:32.838Z,4.47
2022-08-08T18:47:02.323Z,5.53
2022-08-08T18:49:32.725Z,4.20
2022-08-08T18:52:22.802Z,4.47
2022-08-08T18:55:00.986Z,4.50
2022-08-08T18:57:41.682Z,4.03
2022-08-08T19:00:15.935Z,4.05
2022-08-08T19:02:55.826Z,4.57
2022-08-08T19:05:31.737Z,5.43
2022-08-08T19:08:25.090Z,4.95
2022-08-08T19:10:57.750Z,4.47
2022-08-08T19:13:53.387Z,4.78
2022-08-08T19:16:18.583Z,5.03
2022-08-08T19:19:00.043Z,4.68
2022-08-08T19:21:33.558Z,5.03
2022-08-08T19:24:05.773Z,5.00
2022-08-08T19:26:37.470Z,5.30
2022-08-08T19:29:05.493Z,5.00
2022-08-08T19:31:35.468Z,5.43
2022-08-08T19:34:36.007Z,5.32
2022-08-08T19:36:55.183Z,5.63
2022-08-08T19:39:23.266Z,5.55
2022-08-08T19:41:51.046Z,5.38
2022-08-08T19:44:42.981Z,5.07
2022-08-08T19:47:06.611Z,5.18
2022-08-08T19:49:37.850Z,5.10
2022-08-08T19:54:35.241Z,5.28
2022-08-08T19:57:07.813Z,5.65
2022-08-08T19:59:35.824Z,5.95
2022-08-08T20:02:04.595Z,5.45
2022-08-08T20:04:33.443Z,5.68
2022-08-08T20:08:27.039Z,6.03
2022-08-08T20:09:55.302Z,5.68
2022-08-08T20:12:32.255Z,5.97
2022-08-08T20:15:15.034Z,6.20
2022-08-08T20:17:46.155Z,5.72
2022-08-08T20:20:19.197Z,6.40
2022-08-08T20:22:48.788Z,6.20
2022-08-08T20:25:20.369Z,7.10
2022-08-08T20:27:50.208Z,6.57
2022-08-08T20:30:55.938Z,6.20
2022-08-08T20:33:08.220Z,6.78
2022-08-08T20:35:58.320Z,5.97
2022-08-08T20:38:32.707Z,5.68
2022-08-08T20:41:05.859Z,6.35
2022-08-08T20:43:49.331Z,6.65
2022-08-08T20:46:20.701Z,6.07
2022-08-08T20:51:20.956Z,6.75
2022-08-08T20:53:59.035Z,6.57
2022-08-08T20:56:35.908Z,6.45
2022-08-08T20:59:09.178Z,6.50
2022-08-08T21:02:05.672Z,6.53
2022-08-08T21:04:27.530Z,8.10
2022-08-08T21:09:22.779Z,6.28
2022-08-08T21:11:50.738Z,6.97
2022-08-08T21:14:33.745Z,6.47
2022-08-08T21:17:06.306Z,6.40
2022-08-08T21:19:46.132Z,6.03
2022-08-08T21:22:15.813Z,7.20
2022-08-08T21:24:53.780Z,7.78
2022-08-08T21:27:38.949Z,6.47
2022-08-08T21:30:19.395Z,7.15
2022-08-08T21:32:52.342Z,7.28
2022-08-08T21:36:19.126Z,6.40
2022-08-08T21:38:17.193Z,7.90
2022-08-08T21:40:56.055Z,7.35
2022-08-08T21:43:31.346Z,7.10
2022-08-08T21:48:20.287Z,6.50
2022-08-08T21:48:57.387Z,6.90
2022-08-08T21:52:09.817Z,6.88
2022-08-08T21:54:53.657Z,7.97
2022-08-08T21:57:06.132Z,7.00
2022-08-08T22:00:01.257Z,7.15
2022-08-08T22:02:23.488Z,8.05
2022-08-08T22:04:55.904Z,8.48
2022-08-08T22:07:34.618Z,7.20
2022-08-08T22:10:18.519Z,7.55
2022-08-08T22:13:18.040Z,7.53
2022-08-08T22:15:59.391Z,7.35
2022-08-08T22:18:29.680Z,7.05
2022-08-08T22:20:59.637Z,8.13
2022-08-08T22:26:27.089Z,7.68
2022-08-08T22:29:13.589Z,7.72
2022-08-08T22:31:44.067Z,8.40
2022-08-08T22:34:32.331Z,7.93
2022-08-08T22:37:00.249Z,8.32
2022-08-08T22:39:39.538Z,8.70
2022-08-08T22:42:26.961Z,8.48
2022-08-08T22:44:58.569Z,7.85
2022-08-08T22:47:37.845Z,8.05
2022-08-08T22:50:21.635Z,8.85
2022-08-08T22:54:28.169Z,7.80
2022-08-08T22:55:59.308Z,8.85
2022-08-08T22:58:31.294Z,8.70
2022-08-08T23:01:01.646Z,8.75
2022-08-08T23:03:53.794Z,9.85
2022-08-08T23:06:23.097Z,9.50
2022-08-08T23:08:58.154Z,10.63
2022-08-08T23:11:58.111Z,10.65
2022-08-08T23:14:18.265Z,9.70
2022-08-08T23:16:58.012Z,10.57
2022-08-08T23:19:32.289Z,10.18
2022-08-08T23:22:04.791Z,9.07
2022-08-08T23:24:41.496Z,9.85
2022-08-08T23:27:10.146Z,9.93
2022-08-08T23:29:37.989Z,9.60
2022-08-08T23:32:05.856Z,10.13
2022-08-08T23:34:37.815Z,9.60
2022-08-08T23:37:05.350Z,8.82
2022-08-08T23:39:41.905Z,8.85
2022-08-08T23:42:22.411Z,8.35
2022-08-08T23:44:50.424Z,8.98
2022-08-08T23:49:05.196Z,10.00
2022-08-08T23:50:07.227Z,9.93
2022-08-08T23:52:41.534Z,10.13
2022-08-08T23:55:19.442Z,11.32
2022-08-08T23:57:52.744Z,10.95
